sensor_id;sensor_type;location;lat;lon;timestamp;P1;durP1;ratioP1;P2;durP2;ratioP2
12816;SDS011;6473;51.552;6.716;2023-10-31T00:00:02;5.00;;;3.55;;
12816;SDS011;6473;51.552;6.716;2023-10-31T00:02:29;4.03;;;3.53;;
12816;SDS011;6473;51.552;6.716;2023-10-31T00:04:56;3.83;;;3.42;;
12816;SDS011;6473;51.552;6.716;2023-10-31T00:07:24;3.03;;;2.72;;
12816;SDS011;6473;51.552;6.716;2023-10-31T00:09:51;3.03;;;2.63;;
12816;SDS011;6473;51.552;6.716;2023-10-31T00:12:18;3.00;;;2.65;;
12816;SDS011;6473;51.552;6.716;2023-10-31T00:14:45;3.30;;;2.20;;
12816;SDS011;6473;51.552;6.716;2023-10-31T00:17:12;1.80;;;1.70;;
12816;SDS011;6473;51.552;6.716;2023-10-31T00:19:38;2.50;;;2.30;;
12816;SDS011;6473;51.552;6.716;2023-10-31T00:22:05;2.55;;;2.35;;
12816;SDS011;6473;51.552;6.716;2023-10-31T00:24:33;2.60;;;2.40;;
12816;SDS011;6473;51.552;6.716;2023-10-31T00:27:00;3.03;;;2.80;;
12816;SDS011;6473;51.552;6.716;2023-10-31T00:29:27;3.00;;;2.70;;
12816;SDS011;6473;51.552;6.716;2023-10-31T00:31:54;2.95;;;2.75;;
12816;SDS011;6473;51.552;6.716;2023-10-31T00:34:21;3.13;;;2.67;;
12816;SDS011;6473;51.552;6.716;2023-10-31T00:36:48;2.70;;;2.50;;
12816;SDS011;6473;51.552;6.716;2023-10-31T00:39:15;2.60;;;2.40;;
12816;SDS011;6473;51.552;6.716;2023-10-31T00:41:44;4.05;;;2.75;;
12816;SDS011;6473;51.552;6.716;2023-10-31T00:44:11;2.75;;;2.55;;
12816;SDS011;6473;51.552;6.716;2023-10-31T00:46:38;2.53;;;2.33;;
12816;SDS011;6473;51.552;6.716;2023-10-31T00:49:05;2.47;;;2.28;;
12816;SDS011;6473;51.552;6.716;2023-10-31T00:51:32;2.03;;;1.90;;
12816;SDS011;6473;51.552;6.716;2023-10-31T00:53:59;1.88;;;1.77;;
12816;SDS011;6473;51.552;6.716;2023-10-31T00:56:26;1.92;;;1.65;;
12816;SDS011;6473;51.552;6.716;2023-10-31T00:58:54;4.97;;;1.52;;
12816;SDS011;6473;51.552;6.716;2023-10-31T01:01:21;1.70;;;1.60;;
12816;SDS011;6473;51.552;6.716;2023-10-31T01:03:47;1.40;;;1.30;;
12816;SDS011;6473;51.552;6.716;2023-10-31T01:06:14;2.72;;;1.70;;
12816;SDS011;6473;51.552;6.716;2023-10-31T01:08:41;2.50;;;2.30;;
12816;SDS011;6473;51.552;6.716;2023-10-31T01:11:08;2.70;;;2.50;;
12816;SDS011;6473;51.552;6.716;2023-10-31T01:13:35;2.85;;;2.65;;
12816;SDS011;6473;51.552;6.716;2023-10-31T01:16:03;3.30;;;3.10;;
12816;SDS011;6473;51.552;6.716;2023-10-31T01:18:30;3.65;;;3.30;;
12816;SDS011;6473;51.552;6.716;2023-10-31T01:20:57;3.17;;;2.88;;
12816;SDS011;6473;51.552;6.716;2023-10-31T01:23:24;2.72;;;2.50;;
12816;SDS011;6473;51.552;6.716;2023-10-31T01:25:51;4.20;;;2.97;;
12816;SDS011;6473;51.552;6.716;2023-10-31T01:28:18;3.17;;;2.97;;
12816;SDS011;6473;51.552;6.716;2023-10-31T01:30:45;3.83;;;3.40;;
12816;SDS011;6473;51.552;6.716;2023-10-31T01:33:13;4.32;;;3.38;;
12816;SDS011;6473;51.552;6.716;2023-10-31T01:35:40;4.32;;;3.92;;
12816;SDS011;6473;51.552;6.716;2023-10-31T01:38:07;4.32;;;3.88;;
12816;SDS011;6473;51.552;6.716;2023-10-31T01:40:34;5.78;;;4.72;;
12816;SDS011;6473;51.552;6.716;2023-10-31T01:43:00;7.30;;;4.68;;
12816;SDS011;6473;51.552;6.716;2023-10-31T01:45:27;5.25;;;4.18;;
12816;SDS011;6473;51.552;6.716;2023-10-31T01:47:55;6.28;;;4.70;;
12816;SDS011;6473;51.552;6.716;2023-10-31T01:50:23;6.43;;;5.50;;
12816;SDS011;6473;51.552;6.716;2023-10-31T01:52:57;9.27;;;6.35;;
12816;SDS011;6473;51.552;6.716;2023-10-31T01:55:24;7.50;;;6.28;;
12816;SDS011;6473;51.552;6.716;2023-10-31T01:57:54;8.48;;;7.13;;
12816;SDS011;6473;51.552;6.716;2023-10-31T02:00:21;8.88;;;6.85;;
12816;SDS011;6473;51.552;6.716;2023-10-31T02:02:48;7.75;;;6.45;;
12816;SDS011;6473;51.552;6.716;2023-10-31T02:05:19;7.57;;;6.78;;
12816;SDS011;6473;51.552;6.716;2023-10-31T02:07:49;8.18;;;6.78;;
12816;SDS011;6473;51.552;6.716;2023-10-31T02:10:15;8.55;;;6.90;;
12816;SDS011;6473;51.552;6.716;2023-10-31T02:12:42;10.35;;;7.88;;
12816;SDS011;6473;51.552;6.716;2023-10-31T02:15:09;11.25;;;8.45;;
12816;SDS011;6473;51.552;6.716;2023-10-31T02:17:36;11.45;;;9.25;;
12816;SDS011;6473;51.552;6.716;2023-10-31T02:20:07;9.85;;;7.97;;
12816;SDS011;6473;51.552;6.716;2023-10-31T02:22:35;8.40;;;6.90;;
12816;SDS011;6473;51.552;6.716;2023-10-31T02:25:02;10.23;;;7.63;;
12816;SDS011;6473;51.552;6.716;2023-10-31T02:27:41;10.82;;;7.57;;
12816;SDS011;6473;51.552;6.716;2023-10-31T02:30:08;11.82;;;7.60;;
12816;SDS011;6473;51.552;6.716;2023-10-31T02:32:36;10.68;;;7.35;;
12816;SDS011;6473;51.552;6.716;2023-10-31T02:35:03;7.50;;;6.80;;
12816;SDS011;6473;51.552;6.716;2023-10-31T02:37:30;9.05;;;7.57;;
12816;SDS011;6473;51.552;6.716;2023-10-31T02:39:58;7.75;;;6.95;;
12816;SDS011;6473;51.552;6.716;2023-10-31T02:42:25;9.15;;;7.25;;
12816;SDS011;6473;51.552;6.716;2023-10-31T02:44:53;9.45;;;7.78;;
12816;SDS011;6473;51.552;6.716;2023-10-31T02:47:20;10.57;;;7.63;;
12816;SDS011;6473;51.552;6.716;2023-10-31T02:49:47;9.57;;;7.72;;
12816;SDS011;6473;51.552;6.716;2023-10-31T02:52:13;8.85;;;7.78;;
12816;SDS011;6473;51.552;6.716;2023-10-31T02:54:40;11.73;;;8.45;;
12816;SDS011;6473;51.552;6.716;2023-10-31T02:57:08;11.13;;;9.27;;
12816;SDS011;6473;51.552;6.716;2023-10-31T02:59:35;12.02;;;9.18;;
12816;SDS011;6473;51.552;6.716;2023-10-31T03:02:02;15.02;;;9.75;;
12816;SDS011;6473;51.552;6.716;2023-10-31T03:04:29;17.38;;;11.25;;
12816;SDS011;6473;51.552;6.716;2023-10-31T03:06:56;12.75;;;10.07;;
12816;SDS011;6473;51.552;6.716;2023-10-31T03:09:23;14.98;;;10.23;;
12816;SDS011;6473;51.552;6.716;2023-10-31T03:11:49;14.27;;;10.15;;
12816;SDS011;6473;51.552;6.716;2023-10-31T03:14:18;13.55;;;10.98;;
12816;SDS011;6473;51.552;6.716;2023-10-31T03:16:45;13.13;;;10.60;;
12816;SDS011;6473;51.552;6.716;2023-10-31T03:19:11;15.77;;;10.75;;
12816;SDS011;6473;51.552;6.716;2023-10-31T03:21:38;15.20;;;11.32;;
12816;SDS011;6473;51.552;6.716;2023-10-31T03:24:05;15.13;;;11.68;;
12816;SDS011;6473;51.552;6.716;2023-10-31T03:26:32;15.85;;;11.45;;
12816;SDS011;6473;51.552;6.716;2023-10-31T03:28:59;14.23;;;11.85;;
12816;SDS011;6473;51.552;6.716;2023-10-31T03:31:27;15.95;;;12.25;;
12816;SDS011;6473;51.552;6.716;2023-10-31T03:33:54;17.33;;;12.13;;
12816;SDS011;6473;51.552;6.716;2023-10-31T03:36:21;16.83;;;11.50;;
12816;SDS011;6473;51.552;6.716;2023-10-31T03:38:48;14.38;;;11.07;;
12816;SDS011;6473;51.552;6.716;2023-10-31T03:41:16;13.93;;;10.75;;
12816;SDS011;6473;51.552;6.716;2023-10-31T03:43:43;12.73;;;9.77;;
12816;SDS011;6473;51.552;6.716;2023-10-31T03:46:11;11.48;;;8.82;;
12816;SDS011;6473;51.552;6.716;2023-10-31T03:48:39;10.38;;;7.50;;
12816;SDS011;6473;51.552;6.716;2023-10-31T03:51:06;8.07;;;6.25;;
12816;SDS011;6473;51.552;6.716;2023-10-31T03:53:32;6.72;;;5.57;;
12816;SDS011;6473;51.552;6.716;2023-10-31T03:55:59;7.20;;;5.50;;
12816;SDS011;6473;51.552;6.716;2023-10-31T03:58:27;6.68;;;5.95;;
12816;SDS011;6473;51.552;6.716;2023-10-31T04:00:53;6.07;;;4.95;;
12816;SDS011;6473;51.552;6.716;2023-10-31T04:03:20;7.07;;;5.35;;
12816;SDS011;6473;51.552;6.716;2023-10-31T04:05:49;7.97;;;5.03;;
12816;SDS011;6473;51.552;6.716;2023-10-31T04:08:16;7.80;;;5.72;;
12816;SDS011;6473;51.552;6.716;2023-10-31T04:10:43;7.90;;;5.28;;
12816;SDS011;6473;51.552;6.716;2023-10-31T04:13:10;7.07;;;5.95;;
12816;SDS011;6473;51.552;6.716;2023-10-31T04:15:37;7.78;;;5.50;;
12816;SDS011;6473;51.552;6.716;2023-10-31T04:18:04;6.68;;;5.53;;
12816;SDS011;6473;51.552;6.716;2023-10-31T04:20:30;8.02;;;6.20;;
12816;SDS011;6473;51.552;6.716;2023-10-31T04:22:59;7.25;;;6.10;;
12816;SDS011;6473;51.552;6.716;2023-10-31T04:25:25;6.70;;;5.53;;
12816;SDS011;6473;51.552;6.716;2023-10-31T04:27:54;9.50;;;6.40;;
12816;SDS011;6473;51.552;6.716;2023-10-31T04:30:21;7.82;;;6.18;;
12816;SDS011;6473;51.552;6.716;2023-10-31T04:32:48;7.97;;;6.50;;
12816;SDS011;6473;51.552;6.716;2023-10-31T04:35:14;8.93;;;7.38;;
12816;SDS011;6473;51.552;6.716;2023-10-31T04:37:41;7.97;;;6.03;;
12816;SDS011;6473;51.552;6.716;2023-10-31T04:40:10;7.15;;;6.25;;
12816;SDS011;6473;51.552;6.716;2023-10-31T04:42:38;8.68;;;7.10;;
12816;SDS011;6473;51.552;6.716;2023-10-31T04:45:06;9.38;;;6.60;;
12816;SDS011;6473;51.552;6.716;2023-10-31T04:47:34;8.32;;;6.68;;
12816;SDS011;6473;51.552;6.716;2023-10-31T04:50:00;7.15;;;6.43;;
12816;SDS011;6473;51.552;6.716;2023-10-31T04:52:27;8.07;;;6.50;;
12816;SDS011;6473;51.552;6.716;2023-10-31T04:54:54;8.63;;;6.93;;
12816;SDS011;6473;51.552;6.716;2023-10-31T04:57:22;10.90;;;7.22;;
12816;SDS011;6473;51.552;6.716;2023-10-31T04:59:49;10.20;;;8.10;;
12816;SDS011;6473;51.552;6.716;2023-10-31T05:02:16;9.50;;;7.90;;
12816;SDS011;6473;51.552;6.716;2023-10-31T05:04:43;8.63;;;7.22;;
12816;SDS011;6473;51.552;6.716;2023-10-31T05:07:10;10.25;;;7.60;;
12816;SDS011;6473;51.552;6.716;2023-10-31T05:09:38;9.98;;;7.93;;
12816;SDS011;6473;51.552;6.716;2023-10-31T05:12:07;9.05;;;7.60;;
12816;SDS011;6473;51.552;6.716;2023-10-31T05:14:35;7.82;;;6.00;;
12816;SDS011;6473;51.552;6.716;2023-10-31T05:17:04;9.15;;;7.35;;
12816;SDS011;6473;51.552;6.716;2023-10-31T05:19:30;8.43;;;6.38;;
12816;SDS011;6473;51.552;6.716;2023-10-31T05:21:57;8.60;;;6.32;;
12816;SDS011;6473;51.552;6.716;2023-10-31T05:24:24;11.65;;;7.68;;
12816;SDS011;6473;51.552;6.716;2023-10-31T05:26:51;10.02;;;7.32;;
12816;SDS011;6473;51.552;6.716;2023-10-31T05:29:18;8.60;;;6.93;;
12816;SDS011;6473;51.552;6.716;2023-10-31T05:31:46;14.23;;;8.80;;
12816;SDS011;6473;51.552;6.716;2023-10-31T05:34:13;9.77;;;8.00;;
12816;SDS011;6473;51.552;6.716;2023-10-31T05:36:40;13.00;;;8.85;;
12816;SDS011;6473;51.552;6.716;2023-10-31T05:39:07;12.45;;;8.98;;
12816;SDS011;6473;51.552;6.716;2023-10-31T05:41:35;14.27;;;10.23;;
12816;SDS011;6473;51.552;6.716;2023-10-31T05:44:01;12.85;;;9.60;;
12816;SDS011;6473;51.552;6.716;2023-10-31T05:46:28;14.85;;;9.75;;
12816;SDS011;6473;51.552;6.716;2023-10-31T05:48:56;15.27;;;10.82;;
12816;SDS011;6473;51.552;6.716;2023-10-31T05:51:23;14.32;;;10.30;;
12816;SDS011;6473;51.552;6.716;2023-10-31T05:53:51;16.30;;;10.73;;
12816;SDS011;6473;51.552;6.716;2023-10-31T05:56:18;18.70;;;10.95;;
12816;SDS011;6473;51.552;6.716;2023-10-31T05:58:45;16.40;;;10.98;;
12816;SDS011;6473;51.552;6.716;2023-10-31T06:01:12;16.10;;;11.32;;
12816;SDS011;6473;51.552;6.716;2023-10-31T06:03:40;17.48;;;10.65;;
12816;SDS011;6473;51.552;6.716;2023-10-31T06:06:09;14.60;;;10.38;;
12816;SDS011;6473;51.552;6.716;2023-10-31T06:08:37;14.93;;;11.40;;
12816;SDS011;6473;51.552;6.716;2023-10-31T06:11:05;14.88;;;10.40;;
12816;SDS011;6473;51.552;6.716;2023-10-31T06:20:31;15.85;;;10.88;;
12816;SDS011;6473;51.552;6.716;2023-10-31T06:23:01;14.98;;;10.63;;
12816;SDS011;6473;51.552;6.716;2023-10-31T06:25:28;13.40;;;10.57;;
12816;SDS011;6473;51.552;6.716;2023-10-31T06:27:56;14.02;;;10.27;;
12816;SDS011;6473;51.552;6.716;2023-10-31T06:30:23;13.77;;;9.73;;
12816;SDS011;6473;51.552;6.716;2023-10-31T06:32:50;13.73;;;10.30;;
12816;SDS011;6473;51.552;6.716;2023-10-31T06:35:17;14.27;;;9.85;;
12816;SDS011;6473;51.552;6.716;2023-10-31T06:37:44;15.10;;;11.05;;
12816;SDS011;6473;51.552;6.716;2023-10-31T06:40:12;11.30;;;9.45;;
12816;SDS011;6473;51.552;6.716;2023-10-31T06:42:39;13.00;;;9.55;;
12816;SDS011;6473;51.552;6.716;2023-10-31T06:45:06;13.93;;;9.80;;
12816;SDS011;6473;51.552;6.716;2023-10-31T06:47:34;11.55;;;9.02;;
12816;SDS011;6473;51.552;6.716;2023-10-31T06:50:01;11.82;;;9.07;;
12816;SDS011;6473;51.552;6.716;2023-10-31T06:52:28;13.65;;;9.13;;
12816;SDS011;6473;51.552;6.716;2023-10-31T06:54:54;11.13;;;8.90;;
12816;SDS011;6473;51.552;6.716;2023-10-31T06:57:23;10.15;;;8.15;;
12816;SDS011;6473;51.552;6.716;2023-10-31T06:59:49;10.57;;;7.95;;
12816;SDS011;6473;51.552;6.716;2023-10-31T07:02:17;11.70;;;8.32;;
12816;SDS011;6473;51.552;6.716;2023-10-31T07:04:44;10.25;;;7.68;;
12816;SDS011;6473;51.552;6.716;2023-10-31T07:07:10;8.18;;;6.93;;
12816;SDS011;6473;51.552;6.716;2023-10-31T07:09:37;8.23;;;6.82;;
12816;SDS011;6473;51.552;6.716;2023-10-31T07:12:04;7.50;;;6.65;;
12816;SDS011;6473;51.552;6.716;2023-10-31T07:14:33;8.75;;;6.53;;
12816;SDS011;6473;51.552;6.716;2023-10-31T07:17:00;6.20;;;5.53;;
12816;SDS011;6473;51.552;6.716;2023-10-31T07:19:26;7.50;;;5.50;;
12816;SDS011;6473;51.552;6.716;2023-10-31T07:21:53;6.65;;;5.80;;
12816;SDS011;6473;51.552;6.716;2023-10-31T07:24:20;7.15;;;5.72;;
12816;SDS011;6473;51.552;6.716;2023-10-31T07:26:47;8.07;;;6.47;;
12816;SDS011;6473;51.552;6.716;2023-10-31T07:29:14;7.57;;;6.43;;
12816;SDS011;6473;51.552;6.716;2023-10-31T07:31:42;6.88;;;6.28;;
12816;SDS011;6473;51.552;6.716;2023-10-31T07:34:09;8.90;;;6.78;;
12816;SDS011;6473;51.552;6.716;2023-10-31T07:36:36;8.82;;;7.55;;
12816;SDS011;6473;51.552;6.716;2023-10-31T07:39:04;8.07;;;6.63;;
12816;SDS011;6473;51.552;6.716;2023-10-31T07:41:31;8.35;;;7.45;;
12816;SDS011;6473;51.552;6.716;2023-10-31T07:43:58;8.27;;;7.40;;
12816;SDS011;6473;51.552;6.716;2023-10-31T07:46:25;8.52;;;7.18;;
12816;SDS011;6473;51.552;6.716;2023-10-31T07:48:53;8.93;;;7.88;;
12816;SDS011;6473;51.552;6.716;2023-10-31T07:51:19;9.00;;;7.25;;
12816;SDS011;6473;51.552;6.716;2023-10-31T07:53:46;9.13;;;7.75;;
12816;SDS011;6473;51.552;6.716;2023-10-31T07:56:18;9.63;;;8.27;;
12816;SDS011;6473;51.552;6.716;2023-10-31T07:58:48;9.40;;;7.88;;
12816;SDS011;6473;51.552;6.716;2023-10-31T08:01:15;10.60;;;8.45;;
12816;SDS011;6473;51.552;6.716;2023-10-31T08:03:43;10.65;;;8.30;;
12816;SDS011;6473;51.552;6.716;2023-10-31T08:06:11;10.05;;;8.48;;
12816;SDS011;6473;51.552;6.716;2023-10-31T08:08:38;9.02;;;8.13;;
12816;SDS011;6473;51.552;6.716;2023-10-31T08:11:06;8.63;;;7.25;;
12816;SDS011;6473;51.552;6.716;2023-10-31T08:13:34;9.80;;;7.75;;
12816;SDS011;6473;51.552;6.716;2023-10-31T08:16:02;9.15;;;7.82;;
12816;SDS011;6473;51.552;6.716;2023-10-31T08:18:29;9.63;;;8.48;;
12816;SDS011;6473;51.552;6.716;2023-10-31T08:20:56;9.20;;;7.75;;
12816;SDS011;6473;51.552;6.716;2023-10-31T08:23:25;9.32;;;8.27;;
12816;SDS011;6473;51.552;6.716;2023-10-31T08:25:52;9.30;;;8.32;;
12816;SDS011;6473;51.552;6.716;2023-10-31T08:28:19;9.65;;;8.65;;
12816;SDS011;6473;51.552;6.716;2023-10-31T08:30:45;9.35;;;8.30;;
12816;SDS011;6473;51.552;6.716;2023-10-31T08:33:13;9.38;;;8.38;;
12816;SDS011;6473;51.552;6.716;2023-10-31T08:35:40;9.10;;;8.20;;
12816;SDS011;6473;51.552;6.716;2023-10-31T08:38:08;10.35;;;9.15;;
12816;SDS011;6473;51.552;6.716;2023-10-31T08:40:36;11.43;;;8.98;;
12816;SDS011;6473;51.552;6.716;2023-10-31T08:43:03;10.05;;;8.63;;
12816;SDS011;6473;51.552;6.716;2023-10-31T08:45:31;8.95;;;8.05;;
12816;SDS011;6473;51.552;6.716;2023-10-31T08:47:58;8.77;;;7.88;;
12816;SDS011;6473;51.552;6.716;2023-10-31T08:50:25;9.75;;;8.40;;
12816;SDS011;6473;51.552;6.716;2023-10-31T08:52:51;8.77;;;7.90;;
12816;SDS011;6473;51.552;6.716;2023-10-31T08:55:19;8.50;;;7.60;;
12816;SDS011;6473;51.552;6.716;2023-10-31T08:57:47;8.25;;;7.30;;
12816;SDS011;6473;51.552;6.716;2023-10-31T09:00:14;7.97;;;7.18;;
12816;SDS011;6473;51.552;6.716;2023-10-31T09:02:41;8.55;;;7.65;;
12816;SDS011;6473;51.552;6.716;2023-10-31T09:05:08;7.97;;;7.10;;
12816;SDS011;6473;51.552;6.716;2023-10-31T09:07:35;9.20;;;6.93;;
12816;SDS011;6473;51.552;6.716;2023-10-31T09:10:02;6.80;;;6.03;;
12816;SDS011;6473;51.552;6.716;2023-10-31T09:12:30;6.97;;;6.28;;
12816;SDS011;6473;51.552;6.716;2023-10-31T09:14:58;6.70;;;5.72;;
12816;SDS011;6473;51.552;6.716;2023-10-31T09:17:26;7.68;;;5.18;;
12816;SDS011;6473;51.552;6.716;2023-10-31T09:19:53;6.20;;;5.60;;
12816;SDS011;6473;51.552;6.716;2023-10-31T09:22:20;6.07;;;4.93;;
12816;SDS011;6473;51.552;6.716;2023-10-31T09:24:46;5.65;;;5.15;;
12816;SDS011;6473;51.552;6.716;2023-10-31T09:27:13;5.20;;;4.70;;
12816;SDS011;6473;51.552;6.716;2023-10-31T09:29:40;5.30;;;4.80;;
12816;SDS011;6473;51.552;6.716;2023-10-31T09:32:08;5.85;;;4.47;;
12816;SDS011;6473;51.552;6.716;2023-10-31T09:34:35;5.20;;;4.70;;
12816;SDS011;6473;51.552;6.716;2023-10-31T09:37:02;5.05;;;4.22;;
12816;SDS011;6473;51.552;6.716;2023-10-31T09:39:29;4.60;;;4.15;;
12816;SDS011;6473;51.552;6.716;2023-10-31T09:41:56;4.85;;;4.45;;
12816;SDS011;6473;51.552;6.716;2023-10-31T09:44:23;5.22;;;4.70;;
12816;SDS011;6473;51.552;6.716;2023-10-31T09:46:51;5.25;;;4.75;;
12816;SDS011;6473;51.552;6.716;2023-10-31T09:49:19;5.60;;;5.10;;
12816;SDS011;6473;51.552;6.716;2023-10-31T09:51:46;5.38;;;4.90;;
12816;SDS011;6473;51.552;6.716;2023-10-31T09:54:14;6.93;;;5.28;;
12816;SDS011;6473;51.552;6.716;2023-10-31T09:56:42;6.15;;;5.65;;
12816;SDS011;6473;51.552;6.716;2023-10-31T09:59:09;8.10;;;5.45;;
12816;SDS011;6473;51.552;6.716;2023-10-31T10:01:35;7.15;;;6.00;;
12816;SDS011;6473;51.552;6.716;2023-10-31T10:04:02;11.35;;;6.30;;
12816;SDS011;6473;51.552;6.716;2023-10-31T10:06:31;8.73;;;6.82;;
12816;SDS011;6473;51.552;6.716;2023-10-31T10:08:58;7.63;;;6.63;;
12816;SDS011;6473;51.552;6.716;2023-10-31T10:11:27;7.45;;;6.22;;
12816;SDS011;6473;51.552;6.716;2023-10-31T10:13:56;8.68;;;7.00;;
12816;SDS011;6473;51.552;6.716;2023-10-31T10:16:30;9.90;;;6.90;;
12816;SDS011;6473;51.552;6.716;2023-10-31T10:18:57;8.85;;;7.30;;
12816;SDS011;6473;51.552;6.716;2023-10-31T10:21:47;9.13;;;7.55;;
12816;SDS011;6473;51.552;6.716;2023-10-31T10:24:15;12.50;;;7.05;;
12816;SDS011;6473;51.552;6.716;2023-10-31T10:26:42;10.93;;;7.75;;
12816;SDS011;6473;51.552;6.716;2023-10-31T10:29:09;11.13;;;7.10;;
12816;SDS011;6473;51.552;6.716;2023-10-31T10:31:36;8.07;;;7.28;;
12816;SDS011;6473;51.552;6.716;2023-10-31T10:34:03;9.75;;;7.47;;
12816;SDS011;6473;51.552;6.716;2023-10-31T10:36:30;8.18;;;7.38;;
12816;SDS011;6473;51.552;6.716;2023-10-31T10:39:00;9.32;;;7.55;;
12816;SDS011;6473;51.552;6.716;2023-10-31T10:41:28;10.27;;;7.00;;
12816;SDS011;6473;51.552;6.716;2023-10-31T10:43:56;8.88;;;6.32;;
12816;SDS011;6473;51.552;6.716;2023-10-31T10:46:29;8.65;;;7.32;;
12816;SDS011;6473;51.552;6.716;2023-10-31T10:48:59;9.15;;;7.20;;
12816;SDS011;6473;51.552;6.716;2023-10-31T10:51:29;8.00;;;6.90;;
12816;SDS011;6473;51.552;6.716;2023-10-31T10:54:09;8.65;;;6.60;;
12816;SDS011;6473;51.552;6.716;2023-10-31T10:56:42;7.78;;;6.35;;
12816;SDS011;6473;51.552;6.716;2023-10-31T10:59:14;9.15;;;6.35;;
12816;SDS011;6473;51.552;6.716;2023-10-31T11:01:44;7.25;;;5.97;;
12816;SDS011;6473;51.552;6.716;2023-10-31T11:04:13;7.80;;;6.25;;
12816;SDS011;6473;51.552;6.716;2023-10-31T11:06:41;8.15;;;6.15;;
12816;SDS011;6473;51.552;6.716;2023-10-31T11:09:10;8.13;;;5.50;;
12816;SDS011;6473;51.552;6.716;2023-10-31T11:11:39;5.90;;;5.10;;
12816;SDS011;6473;51.552;6.716;2023-10-31T11:14:13;8.25;;;5.40;;
12816;SDS011;6473;51.552;6.716;2023-10-31T11:16:41;6.22;;;4.72;;
12816;SDS011;6473;51.552;6.716;2023-10-31T11:19:11;8.43;;;5.47;;
12816;SDS011;6473;51.552;6.716;2023-10-31T11:21:52;5.10;;;4.60;;
12816;SDS011;6473;51.552;6.716;2023-10-31T11:24:21;6.20;;;4.57;;
12816;SDS011;6473;51.552;6.716;2023-10-31T11:26:52;6.30;;;4.50;;
12816;SDS011;6473;51.552;6.716;2023-10-31T11:29:20;5.60;;;4.40;;
12816;SDS011;6473;51.552;6.716;2023-10-31T11:31:46;7.03;;;4.75;;
12816;SDS011;6473;51.552;6.716;2023-10-31T11:34:15;5.70;;;4.50;;
12816;SDS011;6473;51.552;6.716;2023-10-31T11:36:44;4.47;;;3.90;;
12816;SDS011;6473;51.552;6.716;2023-10-31T11:39:11;4.30;;;3.90;;
12816;SDS011;6473;51.552;6.716;2023-10-31T11:41:40;4.63;;;3.58;;
12816;SDS011;6473;51.552;6.716;2023-10-31T11:44:14;4.35;;;3.80;;
12816;SDS011;6473;51.552;6.716;2023-10-31T11:46:41;4.75;;;3.55;;
12816;SDS011;6473;51.552;6.716;2023-10-31T11:49:08;5.95;;;3.78;;
12816;SDS011;6473;51.552;6.716;2023-10-31T11:51:35;4.90;;;3.75;;
12816;SDS011;6473;51.552;6.716;2023-10-31T11:54:02;4.57;;;3.30;;
12816;SDS011;6473;51.552;6.716;2023-10-31T11:56:32;4.90;;;3.20;;
12816;SDS011;6473;51.552;6.716;2023-10-31T11:59:01;7.18;;;3.30;;
12816;SDS011;6473;51.552;6.716;2023-10-31T12:01:29;4.10;;;3.13;;
12816;SDS011;6473;51.552;6.716;2023-10-31T12:03:56;4.30;;;3.35;;
12816;SDS011;6473;51.552;6.716;2023-10-31T12:06:23;4.03;;;3.00;;
12816;SDS011;6473;51.552;6.716;2023-10-31T12:08:50;4.68;;;3.08;;
12816;SDS011;6473;51.552;6.716;2023-10-31T12:11:18;6.35;;;3.42;;
12816;SDS011;6473;51.552;6.716;2023-10-31T12:13:51;4.75;;;3.13;;
12816;SDS011;6473;51.552;6.716;2023-10-31T12:16:22;5.88;;;3.20;;
12816;SDS011;6473;51.552;6.716;2023-10-31T12:18:54;5.35;;;3.00;;
12816;SDS011;6473;51.552;6.716;2023-10-31T12:21:37;6.07;;;3.10;;
12816;SDS011;6473;51.552;6.716;2023-10-31T12:24:06;5.38;;;3.38;;
12816;SDS011;6473;51.552;6.716;2023-10-31T12:26:34;4.82;;;3.13;;
12816;SDS011;6473;51.552;6.716;2023-10-31T12:29:11;4.50;;;3.28;;
12816;SDS011;6473;51.552;6.716;2023-10-31T12:31:41;3.70;;;2.55;;
12816;SDS011;6473;51.552;6.716;2023-10-31T12:34:10;3.85;;;2.50;;
12816;SDS011;6473;51.552;6.716;2023-10-31T12:36:37;2.95;;;2.30;;
12816;SDS011;6473;51.552;6.716;2023-10-31T12:39:06;3.65;;;2.15;;
12816;SDS011;6473;51.552;6.716;2023-10-31T12:41:35;3.80;;;2.00;;
12816;SDS011;6473;51.552;6.716;2023-10-31T12:44:03;3.85;;;2.50;;
12816;SDS011;6473;51.552;6.716;2023-10-31T12:46:31;3.85;;;2.05;;
12816;SDS011;6473;51.552;6.716;2023-10-31T12:49:01;4.72;;;2.35;;
12816;SDS011;6473;51.552;6.716;2023-10-31T12:51:28;1.88;;;1.75;;
12816;SDS011;6473;51.552;6.716;2023-10-31T12:53:55;3.15;;;2.20;;
12816;SDS011;6473;51.552;6.716;2023-10-31T12:56:35;3.47;;;1.88;;
12816;SDS011;6473;51.552;6.716;2023-10-31T12:59:04;2.95;;;1.90;;
12816;SDS011;6473;51.552;6.716;2023-10-31T13:01:33;3.47;;;2.10;;
12816;SDS011;6473;51.552;6.716;2023-10-31T13:04:01;3.88;;;2.10;;
12816;SDS011;6473;51.552;6.716;2023-10-31T13:06:28;2.30;;;1.90;;
12816;SDS011;6473;51.552;6.716;2023-10-31T13:08:55;3.75;;;1.63;;
12816;SDS011;6473;51.552;6.716;2023-10-31T13:11:22;4.22;;;1.52;;
12816;SDS011;6473;51.552;6.716;2023-10-31T13:13:51;3.50;;;1.60;;
12816;SDS011;6473;51.552;6.716;2023-10-31T13:16:19;4.30;;;1.80;;
12816;SDS011;6473;51.552;6.716;2023-10-31T13:18:46;3.22;;;1.95;;
12816;SDS011;6473;51.552;6.716;2023-10-31T13:21:14;2.10;;;1.60;;
12816;SDS011;6473;51.552;6.716;2023-10-31T13:23:42;1.70;;;1.40;;
12816;SDS011;6473;51.552;6.716;2023-10-31T13:26:11;2.00;;;1.38;;
12816;SDS011;6473;51.552;6.716;2023-10-31T13:28:38;1.55;;;1.42;;
12816;SDS011;6473;51.552;6.716;2023-10-31T13:31:06;1.95;;;1.52;;
12816;SDS011;6473;51.552;6.716;2023-10-31T13:33:33;3.63;;;1.40;;
12816;SDS011;6473;51.552;6.716;2023-10-31T13:36:01;3.80;;;1.48;;
12816;SDS011;6473;51.552;6.716;2023-10-31T13:38:30;2.10;;;1.30;;
12816;SDS011;6473;51.552;6.716;2023-10-31T13:40:57;1.67;;;1.42;;
12816;SDS011;6473;51.552;6.716;2023-10-31T13:43:26;3.10;;;1.65;;
12816;SDS011;6473;51.552;6.716;2023-10-31T13:45:53;2.05;;;1.45;;
12816;SDS011;6473;51.552;6.716;2023-10-31T13:48:20;2.17;;;1.50;;
12816;SDS011;6473;51.552;6.716;2023-10-31T13:50:47;1.40;;;1.30;;
12816;SDS011;6473;51.552;6.716;2023-10-31T13:53:14;2.70;;;1.70;;
12816;SDS011;6473;51.552;6.716;2023-10-31T13:55:43;2.67;;;1.65;;
12816;SDS011;6473;51.552;6.716;2023-10-31T13:58:10;1.98;;;1.30;;
12816;SDS011;6473;51.552;6.716;2023-10-31T14:00:37;3.05;;;1.50;;
12816;SDS011;6473;51.552;6.716;2023-10-31T14:03:04;1.50;;;1.40;;
12816;SDS011;6473;51.552;6.716;2023-10-31T14:05:31;1.88;;;1.70;;
12816;SDS011;6473;51.552;6.716;2023-10-31T14:07:58;1.48;;;1.30;;
12816;SDS011;6473;51.552;6.716;2023-10-31T14:10:25;1.33;;;1.20;;
12816;SDS011;6473;51.552;6.716;2023-10-31T14:12:53;3.08;;;1.40;;
12816;SDS011;6473;51.552;6.716;2023-10-31T14:15:21;2.65;;;1.55;;
12816;SDS011;6473;51.552;6.716;2023-10-31T14:17:48;1.75;;;1.33;;
12816;SDS011;6473;51.552;6.716;2023-10-31T14:20:15;1.52;;;1.40;;
12816;SDS011;6473;51.552;6.716;2023-10-31T14:22:46;2.00;;;1.08;;
12816;SDS011;6473;51.552;6.716;2023-10-31T14:25:13;4.60;;;1.40;;
12816;SDS011;6473;51.552;6.716;2023-10-31T14:27:40;2.10;;;1.35;;
12816;SDS011;6473;51.552;6.716;2023-10-31T14:30:10;1.30;;;1.10;;
12816;SDS011;6473;51.552;6.716;2023-10-31T14:32:37;1.85;;;1.02;;
12816;SDS011;6473;51.552;6.716;2023-10-31T14:35:05;3.03;;;1.20;;
12816;SDS011;6473;51.552;6.716;2023-10-31T14:37:33;2.03;;;0.90;;
12816;SDS011;6473;51.552;6.716;2023-10-31T14:40:01;1.42;;;1.17;;
12816;SDS011;6473;51.552;6.716;2023-10-31T14:42:28;2.33;;;0.90;;
12816;SDS011;6473;51.552;6.716;2023-10-31T14:44:55;1.50;;;1.00;;
12816;SDS011;6473;51.552;6.716;2023-10-31T14:47:24;1.83;;;1.13;;
12816;SDS011;6473;51.552;6.716;2023-10-31T14:49:51;1.58;;;0.98;;
12816;SDS011;6473;51.552;6.716;2023-10-31T14:52:18;2.28;;;0.95;;
12816;SDS011;6473;51.552;6.716;2023-10-31T14:54:44;1.50;;;0.90;;
12816;SDS011;6473;51.552;6.716;2023-10-31T14:57:13;2.65;;;1.40;;
12816;SDS011;6473;51.552;6.716;2023-10-31T14:59:40;2.05;;;1.30;;
12816;SDS011;6473;51.552;6.716;2023-10-31T15:02:06;1.38;;;1.27;;
12816;SDS011;6473;51.552;6.716;2023-10-31T15:04:35;1.20;;;1.10;;
12816;SDS011;6473;51.552;6.716;2023-10-31T15:07:02;1.17;;;1.00;;